CheckWX is a tool to help pilots better visualize weather data.  It is not intended as a substitute for an official pre-flight weather briefing.

21:05:20 UTC

LFPV METAR
Villacoublay-Vélizy (BA 107) Air Base Airport
Villacoublay/Vélizy, France
Current

35 mins ago

LFPV 172030Z AUTO 28004KT 9999 -RA FEW034 OVC110 17/17 Q1010 TEMPO 4000 SHRA SCT012 BKN030TCU
Observed
Aug-17 @ 20:30 UTC
Wind
  • 280° at 4 KTS
Visibility
10,000+ meters
Flight Rules
VFR
Conditions
Light Rain
Cloud Levels
  • Few at 3,400' AGL
  • Overcast at 11,000' AGL
Temperature
17°C / 63°F
Dewpoint
17°C / 63°F
Humidity
100%
Altimeter
29.82" Hg
Pressure
1009.92 hPa
Previous

1 hour ago

LFPV 172000Z AUTO 27006KT 9999 -RA SCT031/// BKN049/// BKN062/// ///TCU 17/17 Q1010 TEMPO 2500 -RADZ OVC004
Observed
Aug-17 @ 20:00 UTC
Wind
  • 270° at 6 KTS
Visibility
10,000+ meters
Flight Rules
VFR
Conditions
Light Rain
Cloud Levels
  • Scattered at 3,100' AGL
  • Broken at 4,900' AGL
  • Broken at 6,200' AGL
Temperature
17°C / 63°F
Dewpoint
17°C / 63°F
Humidity
100%
Altimeter
29.82" Hg
Pressure
1009.92 hPa
Previous

2 hours ago

LFPV 171930Z AUTO 28008KT 9999 -RA SCT005/// SCT052/// BKN076/// ///TCU 18/17 Q1010 TEMPO 2500 -RADZ OVC004 BECMG 22010KT
Observed
Aug-17 @ 19:30 UTC
Wind
  • 280° at 8 KTS
Visibility
10,000+ meters
Flight Rules
VFR
Conditions
Light Rain
Cloud Levels
  • Scattered at 500' AGL
  • Scattered at 5,200' AGL
  • Broken at 7,600' AGL
Temperature
18°C / 64°F
Dewpoint
17°C / 63°F
Humidity
94%
Altimeter
29.82" Hg
Pressure
1009.92 hPa